createdAt,value
2023-05-10T00:01:22.872Z,100398.38
2023-05-10T00:06:24.839Z,100404.56
2023-05-10T00:11:26.781Z,100397.47
2023-05-10T00:16:28.777Z,100400.16
2023-05-10T00:21:30.790Z,100397.53
2023-05-10T00:26:32.727Z,100388.91
2023-05-10T00:31:34.754Z,100398.56
2023-05-10T00:36:36.720Z,100396.81
2023-05-10T00:41:38.636Z,100408.22
2023-05-10T00:46:40.591Z,100410.84
2023-05-10T00:51:42.511Z,100396.84
2023-05-10T00:56:44.438Z,100408.19
2023-05-10T01:01:46.672Z,100409.94
2023-05-10T01:06:48.712Z,100400.34
2023-05-10T01:11:50.586Z,100399.53
2023-05-10T01:16:52.587Z,100395.94
2023-05-10T01:22:03.319Z,100403.78
2023-05-10T01:27:33.524Z,100398.56
2023-05-10T01:32:55.278Z,100403.84
2023-05-10T01:38:13.582Z,100407.38
2023-05-10T01:43:20.578Z,100402.13
2023-05-10T01:48:22.584Z,100399.63
2023-05-10T01:53:24.532Z,100398.69
2023-05-10T01:58:31.540Z,100395.22
2023-05-10T02:03:33.676Z,100389.03
2023-05-10T02:08:35.530Z,100385.53
2023-05-10T02:13:37.332Z,100388.22
2023-05-10T02:18:39.271Z,100382.00
2023-05-10T02:23:41.339Z,100379.31
2023-05-10T02:28:43.288Z,100388.97
2023-05-10T02:33:45.193Z,100381.06
2023-05-10T02:38:47.012Z,100378.38
2023-05-10T02:43:49.378Z,100377.63
2023-05-10T02:48:51.250Z,100372.28
2023-05-10T02:53:53.138Z,100374.88
2023-05-10T02:58:55.005Z,100363.31
2023-05-10T03:03:56.918Z,100371.22
2023-05-10T03:08:58.742Z,100372.94
2023-05-10T03:14:26.307Z,100368.56
2023-05-10T03:19:33.687Z,100369.44
2023-05-10T03:24:35.722Z,100369.38
2023-05-10T03:29:37.552Z,100376.16
2023-05-10T03:34:42.897Z,100363.56
2023-05-10T03:39:44.917Z,100364.25
2023-05-10T03:44:46.776Z,100356.16
2023-05-10T03:49:48.639Z,100359.38
2023-05-10T03:54:50.558Z,100353.16
2023-05-10T03:59:52.456Z,100356.25
2023-05-10T04:04:54.369Z,100354.97
2023-05-10T04:09:56.281Z,100356.56
2023-05-10T04:14:58.272Z,100351.06
2023-05-10T04:20:00.233Z,100348.09
2023-05-10T04:25:02.128Z,100345.94
2023-05-10T04:30:06.772Z,100346.16
2023-05-10T04:35:09.566Z,100344.50
2023-05-10T04:40:11.860Z,100338.84
2023-05-10T04:45:13.796Z,100335.31
2023-05-10T04:50:16.013Z,100330.84
2023-05-10T04:55:18.249Z,100319.41
2023-05-10T05:00:20.544Z,100317.53
2023-05-10T05:05:22.492Z,100310.53
2023-05-10T05:10:24.392Z,100314.25
2023-05-10T05:15:26.318Z,100309.50
2023-05-10T05:20:28.196Z,100306.41
2023-05-10T05:25:30.093Z,100304.50
2023-05-10T05:30:32.061Z,100304.00
2023-05-10T05:35:34.175Z,100294.13
2023-05-10T05:40:36.091Z,100296.91
2023-05-10T05:45:38.029Z,100290.22
2023-05-10T05:50:39.938Z,100284.50
2023-05-10T05:55:41.749Z,100281.38
2023-05-10T06:00:43.657Z,100279.66
2023-05-10T06:05:45.538Z,100272.91
2023-05-10T06:10:47.461Z,100270.59
2023-05-10T06:15:49.299Z,100265.00
2023-05-10T06:20:51.415Z,100267.94
2023-05-10T06:25:53.440Z,100269.50
2023-05-10T06:30:55.367Z,100261.50
2023-05-10T06:35:57.240Z,100266.31
2023-05-10T06:40:59.124Z,100259.34
2023-05-10T06:46:01.191Z,100253.75
2023-05-10T06:51:03.161Z,100247.03
2023-05-10T06:56:05.181Z,100251.50
2023-05-10T07:01:07.054Z,100249.97
2023-05-10T07:06:15.656Z,100251.84
2023-05-10T07:11:20.590Z,100248.59
2023-05-10T07:16:22.563Z,100252.19
2023-05-10T07:21:24.489Z,100243.25
2023-05-10T07:26:26.372Z,100238.78
2023-05-10T07:31:28.170Z,100239.91
2023-05-10T07:36:29.996Z,100229.28
2023-05-10T07:41:31.815Z,100225.97
2023-05-10T07:46:33.701Z,100217.84
2023-05-10T07:51:35.608Z,100209.16
2023-05-10T07:56:37.231Z,100212.44
2023-05-10T08:01:39.053Z,100214.09
2023-05-10T08:06:41.333Z,100217.53
2023-05-10T08:11:43.297Z,100205.19
2023-05-10T08:16:44.953Z,100199.38
2023-05-10T08:21:46.952Z,100203.06
2023-05-10T08:26:48.667Z,100200.00
2023-05-10T08:31:50.603Z,100197.00
2023-05-10T08:36:52.493Z,100193.28
2023-05-10T08:41:54.847Z,100184.34
2023-05-10T08:46:56.678Z,100178.47
2023-05-10T08:51:58.603Z,100176.63
2023-05-10T08:57:00.471Z,100167.16
2023-05-10T09:02:02.395Z,100169.94
2023-05-10T09:07:04.313Z,100158.22
2023-05-10T09:12:06.406Z,100149.06
2023-05-10T09:17:08.316Z,100144.59
2023-05-10T09:22:10.318Z,100146.94
2023-05-10T09:27:12.323Z,100142.38
2023-05-10T09:32:14.152Z,100142.69
2023-05-10T09:37:16.006Z,100138.66
2023-05-10T09:42:19.309Z,100134.34
2023-05-10T09:47:21.216Z,100135.47
2023-05-10T09:52:23.101Z,100126.50
2023-05-10T09:57:25.336Z,100113.31
2023-05-10T10:02:29.897Z,100111.84
2023-05-10T10:07:31.765Z,100112.22
2023-05-10T10:12:33.621Z,100104.63
2023-05-10T10:17:36.609Z,100096.22
2023-05-10T10:22:38.740Z,100086.09
2023-05-10T10:27:46.396Z,100093.50
2023-05-10T10:33:28.703Z,100093.25
2023-05-10T10:38:48.982Z,100091.94
2023-05-10T10:43:50.861Z,100089.38
2023-05-10T10:49:09.937Z,100084.66
2023-05-10T10:54:12.460Z,100078.63
2023-05-10T10:59:14.297Z,100071.66
2023-05-10T11:04:19.692Z,100068.13
2023-05-10T11:09:21.659Z,100069.56
2023-05-10T11:14:23.511Z,100067.19
2023-05-10T11:19:26.057Z,100059.78
2023-05-10T11:24:29.413Z,100049.59
2023-05-10T11:29:31.047Z,100046.91
2023-05-10T11:34:33.008Z,100047.66
2023-05-10T11:39:34.695Z,100042.13
2023-05-10T11:44:36.487Z,100032.50
2023-05-10T11:49:38.415Z,100026.09
2023-05-10T11:54:53.170Z,100027.91
2023-05-10T11:59:55.280Z,100027.03
2023-05-10T12:04:56.954Z,100020.97
2023-05-10T12:10:08.737Z,100023.09
2023-05-10T12:15:23.497Z,100018.63
2023-05-10T12:20:28.013Z,100011.25
2023-05-10T12:25:37.028Z,100002.47
2023-05-10T12:30:39.177Z,100007.19
2023-05-10T12:35:54.557Z,100007.72
2023-05-10T12:41:01.369Z,100002.72
2023-05-10T12:46:08.458Z,99996.72
2023-05-10T12:51:11.072Z,99997.88
2023-05-10T12:56:13.037Z,100001.59
2023-05-10T13:01:15.552Z,100012.25
2023-05-10T13:06:17.475Z,99993.84
2023-05-10T13:11:19.397Z,99987.47
2023-05-10T13:16:21.525Z,99980.91
2023-05-10T13:21:23.222Z,99982.97
2023-05-10T13:26:25.113Z,99980.72
2023-05-10T13:31:26.981Z,99979.53
2023-05-10T13:36:29.016Z,99978.22
2023-05-10T13:41:30.858Z,99973.78
2023-05-10T13:46:33.073Z,99971.16
2023-05-10T13:51:34.929Z,99978.63
2023-05-10T13:56:37.774Z,99975.72
2023-05-10T14:01:39.799Z,99970.59
2023-05-10T14:06:41.745Z,99977.41
2023-05-10T14:11:43.554Z,99980.53
2023-05-10T14:16:45.794Z,99973.81
2023-05-10T14:21:47.563Z,99972.88
2023-05-10T14:26:49.429Z,99958.94
2023-05-10T14:31:51.377Z,99965.19
2023-05-10T14:36:53.303Z,99967.56
2023-05-10T14:41:55.158Z,99957.72
2023-05-10T14:46:56.983Z,99957.34
2023-05-10T14:51:58.804Z,99957.25
2023-05-10T14:57:00.713Z,99961.06
2023-05-10T15:02:02.650Z,99955.06
2023-05-10T15:07:04.584Z,99955.25
2023-05-10T15:12:06.521Z,99958.28
2023-05-10T15:17:08.505Z,99945.69
2023-05-10T15:22:10.582Z,99953.19
2023-05-10T15:27:12.756Z,99948.72
2023-05-10T15:32:14.753Z,99951.50
2023-05-10T15:37:16.553Z,99951.63
2023-05-10T15:42:18.462Z,99939.72
2023-05-10T15:47:20.397Z,99940.50
2023-05-10T15:52:22.313Z,99940.38
2023-05-10T15:57:24.231Z,99938.78
2023-05-10T16:02:26.283Z,99939.41
2023-05-10T16:07:28.202Z,99936.31
2023-05-10T16:12:32.579Z,99934.31
2023-05-10T16:17:34.520Z,99935.41
2023-05-10T16:22:36.489Z,99936.72
2023-05-10T16:27:38.409Z,99942.03
2023-05-10T16:32:40.435Z,99933.94
2023-05-10T16:37:42.412Z,99944.00
2023-05-10T16:42:44.433Z,99946.09
2023-05-10T16:47:46.548Z,99936.41
2023-05-10T16:52:48.836Z,99944.66
2023-05-10T16:57:50.723Z,99946.66
2023-05-10T17:02:52.827Z,99950.38
2023-05-10T17:07:54.730Z,99945.88
2023-05-10T17:12:56.694Z,99948.69
2023-05-10T17:17:58.680Z,99949.91
2023-05-10T17:23:00.595Z,99957.13
2023-05-10T17:28:03.357Z,99957.28
2023-05-10T17:33:05.366Z,99966.16
2023-05-10T17:38:07.473Z,99963.72
2023-05-10T17:43:09.398Z,99974.47
2023-05-10T17:48:11.530Z,99975.94
2023-05-10T17:53:13.482Z,99980.44
2023-05-10T17:58:15.411Z,99984.06
2023-05-10T18:03:17.252Z,99979.28
2023-05-10T18:08:19.137Z,99977.69
2023-05-10T18:13:21.072Z,99986.81
2023-05-10T18:18:23.014Z,99984.16
2023-05-10T18:23:25.005Z,99980.50
2023-05-10T18:28:26.828Z,99986.81
2023-05-10T18:33:28.692Z,99982.75
2023-05-10T18:38:30.609Z,99986.47
2023-05-10T18:43:32.681Z,99984.94
2023-05-10T18:48:34.680Z,99979.72
2023-05-10T18:53:37.277Z,99988.16
2023-05-10T18:58:39.242Z,99998.63
2023-05-10T19:03:41.194Z,99993.19
2023-05-10T19:08:43.027Z,99991.03
2023-05-10T19:13:45.588Z,99984.16
2023-05-10T19:18:47.599Z,99999.97
2023-05-10T19:23:49.627Z,99995.53
2023-05-10T19:28:51.756Z,99995.44
2023-05-10T19:33:53.790Z,99996.34
2023-05-10T19:38:55.904Z,99990.84
2023-05-10T19:43:57.753Z,99992.53
2023-05-10T19:48:59.640Z,99988.97
2023-05-10T19:54:01.626Z,99991.59
2023-05-10T19:59:03.483Z,99986.28
2023-05-10T20:04:05.473Z,99984.44
2023-05-10T20:09:07.431Z,99987.09
2023-05-10T20:14:09.378Z,99983.50
2023-05-10T20:19:11.523Z,99980.84
2023-05-10T20:24:13.694Z,99986.16
2023-05-10T20:29:15.716Z,99985.56
2023-05-10T20:34:17.657Z,99992.75
2023-05-10T20:39:19.644Z,99984.94
2023-05-10T20:44:21.578Z,99994.03
2023-05-10T20:49:23.550Z,99995.22
2023-05-10T20:54:25.426Z,99988.34
2023-05-10T20:59:27.263Z,99989.28
2023-05-10T21:04:29.315Z,99988.78
2023-05-10T21:09:31.216Z,99990.88
2023-05-10T21:14:33.085Z,99987.63
2023-05-10T21:19:34.925Z,99989.34
2023-05-10T21:24:36.828Z,99982.28
2023-05-10T21:29:38.797Z,99984.94
2023-05-10T21:34:40.622Z,99994.13
2023-05-10T21:39:42.416Z,99989.91
2023-05-10T21:44:44.290Z,99994.25
2023-05-10T21:49:46.173Z,99994.38
2023-05-10T21:54:48.073Z,99992.75
2023-05-10T21:59:49.942Z,99982.38
2023-05-10T22:04:51.816Z,99990.88
2023-05-10T22:09:53.678Z,99993.66
2023-05-10T22:15:09.505Z,99996.38
2023-05-10T22:20:12.210Z,99989.47
2023-05-10T22:25:14.213Z,100003.94
2023-05-10T22:30:16.389Z,99989.97
2023-05-10T22:35:18.526Z,99999.78
2023-05-10T22:40:20.417Z,99991.91
2023-05-10T22:45:22.574Z,99996.44
2023-05-10T22:50:24.438Z,99990.59
2023-05-10T22:55:26.408Z,100001.44
2023-05-10T23:00:28.331Z,99995.25
2023-05-10T23:05:30.235Z,100004.88
2023-05-10T23:10:32.258Z,100004.00
2023-05-10T23:15:34.301Z,100001.28
2023-05-10T23:20:36.135Z,100004.00
2023-05-10T23:25:38.322Z,100010.78
2023-05-10T23:30:40.258Z,100008.25
2023-05-10T23:35:42.614Z,100009.97
2023-05-10T23:40:48.130Z,100008.97
2023-05-10T23:45:56.459Z,100002.91
2023-05-10T23:50:58.468Z,100010.78
2023-05-10T23:56:00.286Z,100005.50
